createdAt,value
2023-10-15T00:00:35.579Z,10.10
2023-10-15T00:03:04.223Z,10.00
2023-10-15T00:05:32.307Z,9.90
2023-10-15T00:08:00.266Z,9.90
2023-10-15T00:10:29.023Z,9.80
2023-10-15T00:12:57.955Z,9.70
2023-10-15T00:15:28.890Z,9.60
2023-10-15T00:17:59.994Z,9.60
2023-10-15T00:20:32.546Z,9.50
2023-10-15T00:23:05.467Z,9.40
2023-10-15T00:25:37.351Z,9.30
2023-10-15T00:28:07.100Z,9.30
2023-10-15T00:30:35.627Z,9.20
2023-10-15T00:33:07.697Z,9.20
2023-10-15T00:35:36.167Z,9.10
2023-10-15T00:38:08.774Z,9.10
2023-10-15T00:40:39.564Z,9.00
2023-10-15T00:43:07.734Z,9.00
2023-10-15T00:45:44.731Z,8.90
2023-10-15T00:48:20.828Z,8.90
2023-10-15T00:50:49.485Z,8.80
2023-10-15T00:53:23.858Z,8.80
2023-10-15T00:55:52.431Z,8.80
2023-10-15T00:58:32.793Z,8.70
2023-10-15T01:01:21.312Z,8.70
2023-10-15T01:03:53.269Z,8.70
2023-10-15T01:06:31.265Z,8.60
2023-10-15T01:09:01.116Z,8.60
2023-10-15T01:11:31.373Z,8.60
2023-10-15T01:14:00.103Z,8.60
2023-10-15T01:16:32.886Z,8.50
2023-10-15T01:19:16.240Z,8.50
2023-10-15T01:21:50.889Z,8.40
2023-10-15T01:24:21.099Z,8.30
2023-10-15T01:27:01.056Z,8.30
2023-10-15T01:29:29.791Z,8.30
2023-10-15T01:31:59.901Z,8.30
2023-10-15T01:34:28.640Z,8.30
2023-10-15T01:36:58.453Z,8.30
2023-10-15T01:39:38.475Z,8.30
2023-10-15T01:42:08.401Z,8.30
2023-10-15T01:44:40.488Z,8.20
2023-10-15T01:47:13.369Z,8.20
2023-10-15T01:49:43.067Z,8.20
2023-10-15T01:52:11.330Z,8.30
2023-10-15T01:54:39.324Z,8.30
2023-10-15T01:57:08.597Z,8.30
2023-10-15T01:59:46.565Z,8.30
2023-10-15T02:02:16.149Z,8.30
2023-10-15T02:04:45.737Z,8.20
2023-10-15T02:07:17.129Z,8.20
2023-10-15T02:09:46.054Z,8.30
2023-10-15T02:12:15.816Z,8.20
2023-10-15T02:14:45.587Z,8.20
2023-10-15T02:17:15.721Z,8.10
2023-10-15T02:19:43.971Z,8.10
2023-10-15T02:22:13.677Z,8.10
2023-10-15T02:24:47.610Z,8.00
2023-10-15T02:27:19.413Z,8.00
2023-10-15T02:29:50.853Z,7.90
2023-10-15T02:32:32.666Z,7.90
2023-10-15T02:35:00.870Z,7.80
2023-10-15T02:37:28.393Z,7.70
2023-10-15T02:39:57.942Z,7.60
2023-10-15T02:42:32.960Z,7.50
2023-10-15T02:45:01.925Z,7.40
2023-10-15T02:47:42.458Z,7.30
2023-10-15T02:50:16.503Z,7.30
2023-10-15T02:52:48.667Z,7.20
2023-10-15T02:55:28.103Z,7.10
2023-10-15T02:58:02.745Z,7.00
2023-10-15T03:00:33.954Z,6.90
2023-10-15T03:03:08.855Z,6.90
2023-10-15T03:05:40.783Z,6.80
2023-10-15T03:08:08.728Z,6.70
2023-10-15T03:10:48.172Z,6.70
2023-10-15T03:13:19.459Z,6.70
2023-10-15T03:15:50.170Z,6.60
2023-10-15T03:18:23.637Z,6.60
2023-10-15T03:21:01.528Z,6.60
2023-10-15T03:23:29.529Z,6.60
2023-10-15T03:25:58.931Z,6.50
2023-10-15T03:28:28.353Z,6.50
2023-10-15T03:30:57.451Z,6.50
2023-10-15T03:33:25.448Z,6.40
2023-10-15T03:35:56.193Z,6.40
2023-10-15T03:38:25.636Z,6.40
2023-10-15T03:41:07.370Z,6.30
2023-10-15T03:43:37.219Z,6.30
2023-10-15T03:46:17.712Z,6.30
2023-10-15T03:48:50.544Z,6.20
2023-10-15T03:51:21.430Z,6.30
2023-10-15T03:53:50.923Z,6.20
2023-10-15T03:56:19.958Z,6.20
2023-10-15T03:58:49.422Z,6.20
2023-10-15T04:01:18.307Z,6.10
2023-10-15T04:03:48.860Z,6.10
2023-10-15T04:06:17.894Z,6.10
2023-10-15T04:11:46.907Z,6.00
2023-10-15T04:14:24.172Z,6.00
2023-10-15T04:16:52.952Z,6.00
2023-10-15T04:19:20.892Z,5.90
2023-10-15T04:21:48.984Z,5.90
2023-10-15T04:24:23.283Z,5.90
2023-10-15T04:26:52.865Z,5.80
2023-10-15T04:29:22.254Z,5.80
2023-10-15T04:32:01.314Z,5.70
2023-10-15T04:34:30.642Z,5.70
2023-10-15T04:36:59.355Z,5.60
2023-10-15T04:39:50.460Z,5.60
2023-10-15T04:42:22.176Z,5.60
2023-10-15T04:44:51.207Z,5.60
2023-10-15T04:47:27.712Z,5.50
2023-10-15T04:49:58.788Z,5.50
2023-10-15T04:52:27.122Z,5.50
2023-10-15T04:54:56.731Z,5.50
2023-10-15T04:57:26.973Z,5.40
2023-10-15T04:59:54.906Z,5.40
2023-10-15T05:02:22.796Z,5.40
2023-10-15T05:04:50.850Z,5.40
2023-10-15T05:07:19.231Z,5.40
2023-10-15T05:09:47.143Z,5.30
2023-10-15T05:12:15.035Z,5.30
2023-10-15T05:14:45.848Z,5.40
2023-10-15T05:17:13.777Z,5.30
2023-10-15T05:19:43.703Z,5.40
2023-10-15T05:22:11.666Z,5.50
2023-10-15T05:24:39.607Z,5.60
2023-10-15T05:27:07.478Z,5.80
2023-10-15T05:29:37.428Z,5.90
2023-10-15T05:32:07.558Z,6.10
2023-10-15T05:34:35.568Z,6.20
2023-10-15T05:37:03.743Z,6.30
2023-10-15T05:39:31.868Z,6.40
2023-10-15T05:41:59.734Z,6.50
2023-10-15T05:44:28.084Z,6.60
2023-10-15T05:46:56.117Z,6.70
2023-10-15T05:49:25.467Z,6.70
2023-10-15T05:51:54.325Z,6.70
2023-10-15T05:54:22.360Z,6.80
2023-10-15T05:56:50.372Z,6.80
2023-10-15T05:59:20.042Z,6.80
2023-10-15T06:01:48.024Z,6.90
2023-10-15T06:04:15.947Z,6.90
2023-10-15T06:06:45.352Z,6.90
2023-10-15T06:09:13.350Z,6.90
2023-10-15T06:11:44.410Z,7.00
2023-10-15T06:14:12.297Z,7.10
2023-10-15T06:16:40.841Z,7.20
2023-10-15T06:19:10.239Z,7.30
2023-10-15T06:21:38.143Z,7.40
2023-10-15T06:24:11.161Z,7.50
2023-10-15T06:26:39.655Z,7.60
2023-10-15T06:29:08.506Z,7.70
2023-10-15T06:31:36.554Z,7.70
2023-10-15T06:34:04.509Z,7.80
2023-10-15T06:36:32.380Z,7.90
2023-10-15T06:39:01.515Z,7.90
2023-10-15T06:41:30.931Z,8.00
2023-10-15T06:43:58.840Z,8.00
2023-10-15T06:46:27.328Z,8.10
2023-10-15T06:48:55.267Z,8.10
2023-10-15T06:51:23.173Z,8.10
2023-10-15T06:53:51.050Z,8.20
2023-10-15T06:56:20.391Z,8.10
2023-10-15T06:58:49.894Z,8.20
2023-10-15T07:01:17.872Z,8.20
2023-10-15T07:03:45.887Z,8.30
2023-10-15T07:06:13.866Z,8.30
2023-10-15T07:08:42.343Z,8.40
2023-10-15T07:11:10.397Z,8.40
2023-10-15T07:13:38.420Z,8.60
2023-10-15T07:16:08.306Z,8.70
2023-10-15T07:18:36.316Z,8.70
2023-10-15T07:21:04.623Z,8.70
2023-10-15T07:23:32.527Z,8.70
2023-10-15T07:26:00.539Z,8.60
2023-10-15T07:28:28.668Z,8.60
2023-10-15T07:30:57.020Z,8.60
2023-10-15T07:33:26.705Z,8.80
2023-10-15T07:35:54.630Z,9.00
2023-10-15T07:38:22.551Z,9.20
2023-10-15T07:40:50.519Z,9.50
2023-10-15T07:43:18.413Z,9.70
2023-10-15T07:45:46.289Z,9.70
2023-10-15T07:48:14.274Z,9.80
2023-10-15T07:50:44.495Z,9.80
2023-10-15T07:53:13.088Z,9.80
2023-10-15T07:55:41.033Z,9.80
2023-10-15T07:58:10.663Z,9.80
2023-10-15T08:00:38.544Z,9.80
2023-10-15T08:03:09.648Z,10.00
2023-10-15T08:05:38.251Z,10.30
2023-10-15T08:08:07.808Z,10.50
2023-10-15T08:10:38.068Z,10.70
2023-10-15T08:13:06.848Z,10.70
2023-10-15T08:15:35.648Z,10.70
2023-10-15T08:18:04.202Z,10.60
2023-10-15T08:20:33.391Z,10.70
2023-10-15T08:23:02.727Z,10.70
2023-10-15T08:25:34.005Z,10.70
2023-10-15T08:28:03.459Z,10.80
2023-10-15T08:30:32.668Z,10.90
2023-10-15T08:33:00.848Z,11.00
2023-10-15T08:35:28.905Z,11.20
2023-10-15T08:40:28.781Z,11.20
2023-10-15T08:43:00.318Z,11.20
2023-10-15T08:45:28.223Z,11.20
2023-10-15T08:47:56.162Z,11.30
2023-10-15T08:50:24.449Z,11.40
2023-10-15T08:52:54.022Z,11.40
2023-10-15T08:55:24.320Z,11.40
2023-10-15T08:57:55.485Z,11.50
2023-10-15T09:02:59.126Z,12.00
2023-10-15T09:05:27.281Z,11.80
2023-10-15T09:07:55.826Z,12.20
2023-10-15T09:10:24.645Z,12.50
2023-10-15T09:12:52.607Z,12.90
2023-10-15T09:15:20.922Z,13.20
2023-10-15T09:17:53.733Z,13.50
2023-10-15T09:20:27.641Z,13.70
2023-10-15T09:22:59.749Z,13.50
2023-10-15T09:25:30.216Z,13.40
2023-10-15T09:27:58.730Z,13.20
2023-10-15T09:30:26.964Z,13.00
2023-10-15T09:32:58.302Z,12.80
2023-10-15T09:35:26.701Z,12.70
2023-10-15T09:37:56.207Z,12.40
2023-10-15T09:40:25.652Z,12.20
2023-10-15T09:42:55.252Z,12.10
2023-10-15T09:45:25.165Z,12.10
2023-10-15T09:47:56.346Z,12.50
2023-10-15T09:50:28.605Z,12.70
2023-10-15T09:52:58.419Z,12.60
2023-10-15T09:55:27.864Z,12.40
2023-10-15T09:57:56.620Z,12.20
2023-10-15T10:00:47.418Z,12.00
2023-10-15T10:03:31.790Z,11.80
2023-10-15T10:06:10.867Z,11.60
2023-10-15T10:08:47.271Z,11.50
2023-10-15T10:11:24.196Z,11.30
2023-10-15T10:14:16.312Z,11.20
2023-10-15T10:16:44.966Z,11.10
2023-10-15T10:19:13.140Z,11.00
2023-10-15T10:21:47.607Z,10.90
2023-10-15T10:24:17.920Z,10.70
2023-10-15T10:26:50.734Z,10.70
2023-10-15T10:29:18.732Z,10.50
2023-10-15T10:31:48.464Z,10.30
2023-10-15T10:34:29.532Z,10.20
2023-10-15T10:36:58.824Z,10.10
2023-10-15T10:39:27.308Z,10.10
2023-10-15T10:41:59.825Z,10.00
2023-10-15T10:44:40.762Z,10.00
2023-10-15T10:47:19.507Z,10.00
2023-10-15T10:49:53.024Z,9.80
2023-10-15T10:52:28.848Z,9.80
2023-10-15T10:54:58.132Z,9.80
2023-10-15T10:57:32.757Z,9.80
2023-10-15T11:00:02.188Z,9.90
2023-10-15T11:02:30.737Z,10.00
2023-10-15T11:05:00.174Z,10.10
2023-10-15T11:07:38.109Z,10.30
2023-10-15T11:10:07.056Z,10.70
2023-10-15T11:12:35.091Z,11.10
2023-10-15T11:15:08.221Z,11.20
2023-10-15T11:17:36.294Z,11.30
2023-10-15T11:20:06.016Z,11.30
2023-10-15T11:22:34.140Z,11.40
2023-10-15T11:25:03.830Z,11.40
2023-10-15T11:27:32.752Z,11.30
2023-10-15T11:30:00.671Z,11.30
2023-10-15T11:32:28.815Z,11.40
2023-10-15T11:34:58.474Z,11.30
2023-10-15T11:37:26.749Z,11.30
2023-10-15T11:39:54.720Z,11.30
2023-10-15T11:42:25.726Z,11.30
2023-10-15T11:44:57.672Z,11.30
2023-10-15T11:47:28.595Z,11.30
2023-10-15T11:49:57.175Z,11.20
2023-10-15T11:52:25.088Z,11.20
2023-10-15T11:54:53.505Z,11.10
2023-10-15T11:57:22.310Z,11.10
2023-10-15T11:59:55.142Z,11.00
2023-10-15T12:02:26.568Z,11.00
2023-10-15T12:04:58.065Z,10.90
2023-10-15T12:07:26.975Z,10.90
2023-10-15T12:09:54.855Z,10.80
2023-10-15T12:12:22.767Z,10.90
2023-10-15T12:14:52.037Z,11.10
2023-10-15T12:17:20.053Z,11.10
2023-10-15T12:19:52.650Z,11.00
2023-10-15T12:22:25.586Z,10.90
2023-10-15T12:24:53.644Z,10.90
2023-10-15T12:27:21.598Z,10.70
2023-10-15T12:29:49.573Z,10.60
2023-10-15T12:32:28.541Z,10.50
2023-10-15T12:34:59.921Z,10.40
2023-10-15T12:37:32.007Z,10.30
2023-10-15T12:39:59.988Z,10.20
2023-10-15T12:42:27.901Z,10.10
2023-10-15T12:44:55.780Z,10.00
2023-10-15T12:47:25.125Z,9.90
2023-10-15T12:49:53.085Z,9.80
2023-10-15T12:52:20.996Z,9.70
2023-10-15T12:54:48.897Z,9.60
2023-10-15T12:57:16.865Z,9.40
2023-10-15T12:59:44.796Z,9.30
2023-10-15T13:02:12.763Z,9.20
2023-10-15T13:04:42.217Z,9.10
2023-10-15T13:07:12.336Z,9.00
2023-10-15T13:09:40.239Z,9.00
2023-10-15T13:12:10.482Z,9.00
2023-10-15T13:14:38.526Z,9.00
2023-10-15T13:17:07.784Z,8.90
2023-10-15T13:19:35.745Z,8.90
2023-10-15T13:22:07.186Z,8.90
2023-10-15T13:24:35.055Z,8.90
2023-10-15T13:27:03.122Z,8.80
2023-10-15T13:29:32.627Z,8.80
2023-10-15T13:32:01.573Z,8.80
2023-10-15T13:34:31.040Z,8.80
2023-10-15T13:36:59.012Z,8.80
2023-10-15T13:39:29.960Z,8.90
2023-10-15T13:41:58.051Z,8.90
2023-10-15T13:44:26.972Z,9.00
2023-10-15T13:46:55.209Z,9.10
2023-10-15T13:49:23.557Z,9.20
2023-10-15T13:51:52.308Z,9.90
2023-10-15T13:54:21.181Z,10.50
2023-10-15T13:56:51.284Z,10.80
2023-10-15T13:59:22.420Z,10.90
2023-10-15T14:01:50.806Z,10.90
2023-10-15T14:04:19.798Z,11.00
2023-10-15T14:06:48.206Z,11.00
2023-10-15T14:09:16.875Z,11.10
2023-10-15T14:11:45.352Z,11.20
2023-10-15T14:14:15.290Z,11.20
2023-10-15T14:16:44.025Z,11.10
2023-10-15T14:19:12.226Z,11.00
2023-10-15T14:21:43.104Z,10.90
2023-10-15T14:24:14.253Z,10.80
2023-10-15T14:26:44.133Z,10.80
2023-10-15T14:29:12.850Z,10.60
2023-10-15T14:31:42.954Z,10.60
2023-10-15T14:34:11.590Z,10.40
2023-10-15T14:36:40.615Z,10.30
2023-10-15T14:39:09.203Z,10.20
2023-10-15T14:41:37.466Z,10.10
2023-10-15T14:44:05.653Z,10.00
2023-10-15T14:46:34.111Z,9.90
2023-10-15T14:49:03.444Z,9.80
2023-10-15T14:51:31.367Z,9.80
2023-10-15T14:54:00.940Z,9.70
2023-10-15T14:56:29.524Z,9.70
2023-10-15T14:58:57.539Z,9.60
2023-10-15T15:01:25.605Z,9.60
2023-10-15T15:03:55.396Z,9.50
2023-10-15T15:06:24.855Z,9.50
2023-10-15T15:08:52.798Z,9.40
2023-10-15T15:11:20.752Z,9.40
2023-10-15T15:13:48.832Z,9.40
2023-10-15T15:16:18.081Z,9.30
2023-10-15T15:18:46.137Z,9.30
2023-10-15T15:21:14.027Z,9.20
2023-10-15T15:23:43.625Z,9.20
2023-10-15T15:26:11.525Z,9.10
2023-10-15T15:28:40.732Z,9.10
2023-10-15T15:31:10.785Z,9.00
2023-10-15T15:33:38.741Z,8.90
2023-10-15T15:36:06.848Z,8.90
2023-10-15T15:38:34.820Z,8.80
2023-10-15T15:41:05.156Z,8.90
2023-10-15T15:43:33.619Z,8.80
2023-10-15T15:46:01.615Z,8.80
2023-10-15T15:48:29.618Z,8.80
2023-10-15T15:50:57.667Z,8.70
2023-10-15T15:53:26.560Z,8.70
2023-10-15T15:55:55.321Z,8.60
2023-10-15T15:58:24.721Z,8.60
2023-10-15T16:00:52.644Z,8.50
2023-10-15T16:03:21.601Z,8.50
2023-10-15T16:05:49.922Z,8.40
2023-10-15T16:08:17.921Z,8.30
2023-10-15T16:10:46.013Z,8.20
2023-10-15T16:13:13.956Z,8.10
2023-10-15T16:15:43.276Z,8.10
2023-10-15T16:18:11.315Z,8.00
2023-10-15T16:20:40.137Z,7.90
2023-10-15T16:23:08.162Z,7.90
2023-10-15T16:25:36.145Z,7.80
2023-10-15T16:28:04.105Z,7.60
2023-10-15T16:30:32.506Z,7.50
2023-10-15T16:33:01.862Z,7.40
2023-10-15T16:35:32.424Z,7.30
2023-10-15T16:38:00.359Z,7.20
2023-10-15T16:40:28.318Z,7.20
2023-10-15T16:42:57.420Z,7.10
2023-10-15T16:45:25.552Z,7.00
2023-10-15T16:47:53.692Z,6.90
2023-10-15T16:50:23.262Z,6.90
2023-10-15T16:52:53.880Z,6.90
2023-10-15T16:55:21.831Z,6.90
2023-10-15T16:57:49.695Z,6.90
2023-10-15T17:00:19.478Z,6.90
2023-10-15T17:02:49.174Z,6.90
2023-10-15T17:05:17.292Z,6.90
2023-10-15T17:07:47.139Z,6.90
2023-10-15T17:10:15.520Z,7.00
2023-10-15T17:12:43.456Z,7.00
2023-10-15T17:15:13.792Z,7.00
2023-10-15T17:17:41.905Z,6.90
2023-10-15T17:20:11.618Z,6.70
2023-10-15T17:22:39.525Z,6.60
2023-10-15T17:25:09.662Z,6.50
2023-10-15T17:27:37.573Z,6.40
2023-10-15T17:32:37.267Z,6.20
2023-10-15T17:35:06.323Z,6.20
2023-10-15T17:37:34.417Z,6.10
2023-10-15T17:40:02.544Z,6.10
2023-10-15T17:42:31.884Z,6.00
2023-10-15T17:44:59.921Z,6.00
2023-10-15T17:47:27.931Z,5.90
2023-10-15T17:49:55.883Z,5.80
2023-10-15T17:52:23.775Z,5.80
2023-10-15T17:54:51.663Z,5.70
2023-10-15T17:57:19.636Z,5.60
2023-10-15T17:59:48.946Z,5.60
2023-10-15T18:02:16.849Z,5.50
2023-10-15T18:04:44.862Z,5.40
2023-10-15T18:07:12.956Z,5.30
2023-10-15T18:09:43.823Z,5.30
2023-10-15T18:12:12.659Z,5.30
2023-10-15T18:14:42.595Z,5.30
2023-10-15T18:17:12.956Z,5.20
2023-10-15T18:19:40.873Z,5.10
2023-10-15T18:22:09.336Z,5.10
2023-10-15T18:24:37.351Z,5.10
2023-10-15T18:27:05.830Z,5.00
2023-10-15T18:29:33.700Z,5.00
2023-10-15T18:32:01.798Z,5.00
2023-10-15T18:34:32.094Z,5.00
2023-10-15T18:37:00.047Z,5.00
2023-10-15T18:39:28.149Z,4.90
2023-10-15T18:41:56.141Z,4.90
2023-10-15T18:44:24.733Z,4.90
2023-10-15T18:46:55.294Z,4.90
2023-10-15T18:49:23.240Z,4.90
2023-10-15T18:51:52.500Z,4.90
2023-10-15T18:54:20.490Z,4.90
2023-10-15T18:56:48.423Z,4.90
2023-10-15T18:59:17.337Z,4.80
2023-10-15T19:01:45.299Z,4.80
2023-10-15T19:04:13.410Z,4.80
2023-10-15T19:06:43.082Z,4.70
2023-10-15T19:09:12.398Z,4.70
2023-10-15T19:11:40.285Z,4.70
2023-10-15T19:14:09.334Z,4.70
2023-10-15T19:16:37.253Z,4.70
2023-10-15T19:19:05.424Z,4.70
2023-10-15T19:21:33.694Z,4.60
2023-10-15T19:24:01.642Z,4.60
2023-10-15T19:26:31.389Z,4.60
2023-10-15T19:28:59.300Z,4.60
2023-10-15T19:31:27.302Z,4.50
2023-10-15T19:33:55.399Z,4.50
2023-10-15T19:36:23.948Z,4.50
2023-10-15T19:38:52.674Z,4.50
2023-10-15T19:41:20.624Z,4.50
2023-10-15T19:43:50.363Z,4.40
2023-10-15T19:46:18.262Z,4.40
2023-10-15T19:48:46.217Z,4.40
2023-10-15T19:51:14.536Z,4.40
2023-10-15T19:53:42.557Z,4.40
2023-10-15T19:56:11.505Z,4.40
2023-10-15T19:58:39.735Z,4.40
2023-10-15T20:01:09.494Z,4.40
2023-10-15T20:03:47.461Z,4.30
2023-10-15T20:06:23.839Z,4.30
2023-10-15T20:08:51.805Z,4.20
2023-10-15T20:11:19.718Z,4.30
2023-10-15T20:13:47.613Z,4.20
2023-10-15T20:16:18.873Z,4.20
2023-10-15T20:18:48.430Z,4.20
2023-10-15T20:21:16.400Z,4.20
2023-10-15T20:23:44.506Z,4.20
2023-10-15T20:26:13.512Z,4.10
2023-10-15T20:28:41.505Z,4.10
2023-10-15T20:31:10.559Z,4.10
2023-10-15T20:33:39.980Z,4.10
2023-10-15T20:36:08.101Z,4.10
2023-10-15T20:38:36.024Z,4.10
2023-10-15T20:41:03.937Z,4.10
2023-10-15T20:43:31.835Z,4.00
2023-10-15T20:45:59.882Z,4.00
2023-10-15T20:48:28.817Z,4.00
2023-10-15T20:50:58.819Z,4.00
2023-10-15T20:53:26.731Z,4.00
2023-10-15T20:55:55.248Z,4.00
2023-10-15T20:58:23.281Z,4.00
2023-10-15T21:00:52.176Z,4.00
2023-10-15T21:03:21.519Z,3.90
2023-10-15T21:05:49.891Z,3.90
2023-10-15T21:08:19.375Z,3.80
2023-10-15T21:10:47.955Z,3.80
2023-10-15T21:13:15.904Z,3.80
2023-10-15T21:15:43.881Z,3.70
2023-10-15T21:18:12.024Z,3.70
2023-10-15T21:20:39.982Z,3.70
2023-10-15T21:23:08.860Z,3.60
2023-10-15T21:25:38.169Z,3.50
2023-10-15T21:28:06.479Z,3.50
2023-10-15T21:30:35.105Z,3.40
2023-10-15T21:33:04.081Z,3.40
2023-10-15T21:35:32.453Z,3.30
2023-10-15T21:38:00.344Z,3.30
2023-10-15T21:40:28.368Z,3.30
2023-10-15T21:42:58.321Z,3.20
2023-10-15T21:45:26.269Z,3.20
2023-10-15T21:47:54.263Z,3.10
2023-10-15T21:50:22.225Z,3.10
2023-10-15T21:52:50.107Z,3.10
2023-10-15T21:55:18.778Z,3.10
2023-10-15T21:57:46.761Z,3.00
2023-10-15T22:00:29.456Z,3.00
2023-10-15T22:02:58.369Z,3.00
2023-10-15T22:05:26.638Z,3.00
2023-10-15T22:07:54.649Z,3.00
2023-10-15T22:10:23.074Z,3.00
2023-10-15T22:12:51.733Z,3.00
2023-10-15T22:15:21.037Z,3.00
2023-10-15T22:17:49.243Z,2.90
2023-10-15T22:20:22.579Z,2.90
2023-10-15T22:22:50.601Z,2.90
2023-10-15T22:25:19.464Z,2.90
2023-10-15T22:27:48.191Z,2.90
2023-10-15T22:30:20.712Z,2.90
2023-10-15T22:32:50.908Z,2.80
2023-10-15T22:35:23.409Z,2.80
2023-10-15T22:37:53.229Z,2.80
2023-10-15T22:40:23.658Z,2.70
2023-10-15T22:42:51.544Z,2.70
2023-10-15T22:45:21.831Z,2.70
2023-10-15T22:47:51.626Z,2.70
2023-10-15T22:50:19.558Z,2.70
2023-10-15T22:52:47.521Z,2.60
2023-10-15T22:55:15.402Z,2.60
2023-10-15T22:57:44.266Z,2.60
2023-10-15T23:00:13.014Z,2.60
2023-10-15T23:02:42.586Z,2.60
2023-10-15T23:05:14.567Z,2.50
2023-10-15T23:07:42.475Z,2.50
2023-10-15T23:10:11.282Z,2.50
2023-10-15T23:12:41.406Z,2.50
2023-10-15T23:15:16.602Z,2.50
2023-10-15T23:17:45.062Z,2.50
2023-10-15T23:20:25.834Z,2.50
2023-10-15T23:22:55.424Z,2.50
2023-10-15T23:25:23.310Z,2.50
2023-10-15T23:27:51.374Z,2.40
2023-10-15T23:30:22.968Z,2.40
2023-10-15T23:32:52.168Z,2.40
2023-10-15T23:35:22.036Z,2.40
2023-10-15T23:37:51.830Z,2.40
2023-10-15T23:40:22.583Z,2.40
2023-10-15T23:42:51.005Z,2.50
2023-10-15T23:45:26.976Z,2.50
2023-10-15T23:48:07.086Z,2.50
2023-10-15T23:50:45.327Z,2.50
2023-10-15T23:53:20.254Z,2.50
2023-10-15T23:55:50.808Z,2.50
2023-10-15T23:58:18.894Z,2.50
